sensor_id;sensor_type;location;lat;lon;timestamp;P1;durP1;ratioP1;P2;durP2;ratioP2
20743;SDS011;56303;52.160;-0.428;2023-10-13T00:01:57;6.73;;;3.90;;
20743;SDS011;56303;52.160;-0.428;2023-10-13T00:04:25;3.80;;;2.90;;
20743;SDS011;56303;52.160;-0.428;2023-10-13T00:06:53;3.50;;;3.07;;
20743;SDS011;56303;52.160;-0.428;2023-10-13T00:09:23;3.87;;;2.60;;
20743;SDS011;56303;52.160;-0.428;2023-10-13T00:11:59;3.83;;;2.10;;
20743;SDS011;56303;52.160;-0.428;2023-10-13T00:14:26;2.73;;;2.20;;
20743;SDS011;56303;52.160;-0.428;2023-10-13T00:17:03;2.00;;;1.80;;
20743;SDS011;56303;52.160;-0.428;2023-10-13T00:19:33;4.10;;;2.10;;
20743;SDS011;56303;52.160;-0.428;2023-10-13T00:22:06;2.23;;;1.87;;
20743;SDS011;56303;52.160;-0.428;2023-10-13T00:24:37;2.90;;;2.10;;
20743;SDS011;56303;52.160;-0.428;2023-10-13T00:27:25;1.87;;;1.50;;
20743;SDS011;56303;52.160;-0.428;2023-10-13T00:30:00;1.57;;;1.30;;
20743;SDS011;56303;52.160;-0.428;2023-10-13T00:32:50;1.40;;;1.30;;
20743;SDS011;56303;52.160;-0.428;2023-10-13T00:35:24;4.33;;;1.80;;
20743;SDS011;56303;52.160;-0.428;2023-10-13T00:37:52;3.93;;;2.00;;
20743;SDS011;56303;52.160;-0.428;2023-10-13T00:40:21;3.37;;;1.90;;
20743;SDS011;56303;52.160;-0.428;2023-10-13T00:42:57;2.93;;;2.13;;
20743;SDS011;56303;52.160;-0.428;2023-10-13T00:45:44;4.47;;;1.80;;
20743;SDS011;56303;52.160;-0.428;2023-10-13T00:48:21;3.20;;;1.93;;
20743;SDS011;56303;52.160;-0.428;2023-10-13T00:51:01;3.90;;;1.40;;
20743;SDS011;56303;52.160;-0.428;2023-10-13T00:53:29;3.03;;;1.37;;
20743;SDS011;56303;52.160;-0.428;2023-10-13T00:56:00;2.30;;;1.27;;
20743;SDS011;56303;52.160;-0.428;2023-10-13T00:58:34;3.67;;;1.37;;
20743;SDS011;56303;52.160;-0.428;2023-10-13T01:01:02;1.20;;;1.10;;
20743;SDS011;56303;52.160;-0.428;2023-10-13T01:03:45;1.23;;;1.10;;
20743;SDS011;56303;52.160;-0.428;2023-10-13T01:06:17;3.10;;;1.37;;
20743;SDS011;56303;52.160;-0.428;2023-10-13T01:08:47;1.77;;;1.17;;
20743;SDS011;56303;52.160;-0.428;2023-10-13T01:11:18;1.50;;;1.40;;
20743;SDS011;56303;52.160;-0.428;2023-10-13T01:13:45;1.50;;;1.30;;
20743;SDS011;56303;52.160;-0.428;2023-10-13T01:16:18;3.17;;;1.77;;
20743;SDS011;56303;52.160;-0.428;2023-10-13T01:18:50;2.77;;;1.40;;
20743;SDS011;56303;52.160;-0.428;2023-10-13T01:21:17;2.43;;;1.60;;
20743;SDS011;56303;52.160;-0.428;2023-10-13T01:23:47;4.70;;;2.07;;
20743;SDS011;56303;52.160;-0.428;2023-10-13T01:26:14;2.57;;;1.70;;
20743;SDS011;56303;52.160;-0.428;2023-10-13T01:28:47;3.83;;;1.90;;
20743;SDS011;56303;52.160;-0.428;2023-10-13T01:31:16;3.60;;;2.07;;
20743;SDS011;56303;52.160;-0.428;2023-10-13T01:33:57;3.63;;;1.77;;
20743;SDS011;56303;52.160;-0.428;2023-10-13T01:36:27;2.47;;;1.70;;
20743;SDS011;56303;52.160;-0.428;2023-10-13T01:38:54;2.73;;;1.33;;
20743;SDS011;56303;52.160;-0.428;2023-10-13T01:41:21;2.53;;;1.80;;
20743;SDS011;56303;52.160;-0.428;2023-10-13T01:43:49;1.97;;;1.50;;
20743;SDS011;56303;52.160;-0.428;2023-10-13T01:46:15;4.03;;;1.40;;
20743;SDS011;56303;52.160;-0.428;2023-10-13T01:48:45;3.23;;;1.70;;
20743;SDS011;56303;52.160;-0.428;2023-10-13T01:51:12;4.07;;;1.90;;
20743;SDS011;56303;52.160;-0.428;2023-10-13T01:53:40;2.53;;;1.53;;
20743;SDS011;56303;52.160;-0.428;2023-10-13T01:56:10;4.43;;;1.60;;
20743;SDS011;56303;52.160;-0.428;2023-10-13T01:58:37;2.20;;;1.17;;
20743;SDS011;56303;52.160;-0.428;2023-10-13T02:01:08;1.33;;;1.23;;
20743;SDS011;56303;52.160;-0.428;2023-10-13T02:03:37;1.23;;;0.93;;
20743;SDS011;56303;52.160;-0.428;2023-10-13T02:06:12;1.33;;;1.03;;
20743;SDS011;56303;52.160;-0.428;2023-10-13T02:08:44;2.93;;;1.17;;
20743;SDS011;56303;52.160;-0.428;2023-10-13T02:11:13;1.10;;;1.00;;
20743;SDS011;56303;52.160;-0.428;2023-10-13T02:13:45;2.23;;;1.50;;
20743;SDS011;56303;52.160;-0.428;2023-10-13T02:16:16;3.13;;;1.23;;
20743;SDS011;56303;52.160;-0.428;2023-10-13T02:18:45;2.03;;;1.20;;
20743;SDS011;56303;52.160;-0.428;2023-10-13T02:21:17;2.60;;;1.60;;
20743;SDS011;56303;52.160;-0.428;2023-10-13T02:23:44;2.40;;;1.73;;
20743;SDS011;56303;52.160;-0.428;2023-10-13T02:26:12;5.10;;;2.63;;
20743;SDS011;56303;52.160;-0.428;2023-10-13T02:28:53;6.30;;;2.60;;
20743;SDS011;56303;52.160;-0.428;2023-10-13T02:31:23;7.00;;;3.13;;
20743;SDS011;56303;52.160;-0.428;2023-10-13T02:33:52;11.27;;;3.33;;
20743;SDS011;56303;52.160;-0.428;2023-10-13T02:36:19;5.00;;;3.30;;
20743;SDS011;56303;52.160;-0.428;2023-10-13T02:38:49;6.07;;;3.47;;
20743;SDS011;56303;52.160;-0.428;2023-10-13T02:41:24;9.77;;;4.17;;
20743;SDS011;56303;52.160;-0.428;2023-10-13T02:43:55;11.43;;;4.10;;
20743;SDS011;56303;52.160;-0.428;2023-10-13T02:46:23;7.10;;;4.17;;
20743;SDS011;56303;52.160;-0.428;2023-10-13T02:48:55;6.33;;;4.13;;
20743;SDS011;56303;52.160;-0.428;2023-10-13T02:51:24;5.90;;;4.17;;
20743;SDS011;56303;52.160;-0.428;2023-10-13T02:54:05;7.30;;;4.27;;
20743;SDS011;56303;52.160;-0.428;2023-10-13T02:56:38;8.97;;;4.70;;
20743;SDS011;56303;52.160;-0.428;2023-10-13T02:59:24;6.90;;;4.50;;
20743;SDS011;56303;52.160;-0.428;2023-10-13T03:02:21;5.93;;;4.00;;
20743;SDS011;56303;52.160;-0.428;2023-10-13T03:04:53;10.33;;;4.50;;
20743;SDS011;56303;52.160;-0.428;2023-10-13T03:07:28;6.33;;;4.40;;
20743;SDS011;56303;52.160;-0.428;2023-10-13T03:09:56;7.27;;;4.30;;
20743;SDS011;56303;52.160;-0.428;2023-10-13T03:12:31;6.83;;;4.37;;
20743;SDS011;56303;52.160;-0.428;2023-10-13T03:15:00;7.30;;;4.57;;
20743;SDS011;56303;52.160;-0.428;2023-10-13T03:17:40;6.50;;;4.70;;
20743;SDS011;56303;52.160;-0.428;2023-10-13T03:20:10;7.53;;;4.67;;
20743;SDS011;56303;52.160;-0.428;2023-10-13T03:22:41;10.23;;;5.40;;
20743;SDS011;56303;52.160;-0.428;2023-10-13T03:25:13;6.33;;;5.07;;
20743;SDS011;56303;52.160;-0.428;2023-10-13T03:27:50;9.23;;;5.13;;
20743;SDS011;56303;52.160;-0.428;2023-10-13T03:30:18;11.50;;;5.73;;
20743;SDS011;56303;52.160;-0.428;2023-10-13T03:32:47;10.40;;;4.50;;
20743;SDS011;56303;52.160;-0.428;2023-10-13T03:35:21;9.10;;;5.70;;
20743;SDS011;56303;52.160;-0.428;2023-10-13T03:37:51;10.47;;;5.97;;
20743;SDS011;56303;52.160;-0.428;2023-10-13T03:40:18;10.43;;;5.57;;
20743;SDS011;56303;52.160;-0.428;2023-10-13T03:42:49;8.07;;;5.73;;
20743;SDS011;56303;52.160;-0.428;2023-10-13T03:48:06;11.33;;;6.63;;
20743;SDS011;56303;52.160;-0.428;2023-10-13T03:50:38;8.47;;;6.40;;
20743;SDS011;56303;52.160;-0.428;2023-10-13T03:53:13;11.77;;;6.57;;
20743;SDS011;56303;52.160;-0.428;2023-10-13T03:55:40;9.30;;;6.27;;
20743;SDS011;56303;52.160;-0.428;2023-10-13T03:58:14;11.43;;;7.00;;
20743;SDS011;56303;52.160;-0.428;2023-10-13T04:00:43;10.83;;;6.70;;
20743;SDS011;56303;52.160;-0.428;2023-10-13T04:03:10;10.90;;;6.40;;
20743;SDS011;56303;52.160;-0.428;2023-10-13T04:05:42;11.27;;;7.00;;
20743;SDS011;56303;52.160;-0.428;2023-10-13T04:08:27;8.50;;;6.13;;
20743;SDS011;56303;52.160;-0.428;2023-10-13T04:10:54;10.70;;;6.47;;
20743;SDS011;56303;52.160;-0.428;2023-10-13T04:13:23;9.80;;;6.87;;
20743;SDS011;56303;52.160;-0.428;2023-10-13T04:16:08;13.07;;;7.23;;
20743;SDS011;56303;52.160;-0.428;2023-10-13T04:19:01;12.43;;;7.20;;
20743;SDS011;56303;52.160;-0.428;2023-10-13T04:21:28;13.23;;;7.67;;
20743;SDS011;56303;52.160;-0.428;2023-10-13T04:24:08;14.17;;;7.47;;
20743;SDS011;56303;52.160;-0.428;2023-10-13T04:26:56;13.13;;;8.27;;
20743;SDS011;56303;52.160;-0.428;2023-10-13T04:29:38;12.27;;;8.33;;
20743;SDS011;56303;52.160;-0.428;2023-10-13T04:32:14;14.30;;;7.93;;
20743;SDS011;56303;52.160;-0.428;2023-10-13T04:34:46;11.77;;;7.50;;
20743;SDS011;56303;52.160;-0.428;2023-10-13T04:37:12;14.73;;;7.80;;
20743;SDS011;56303;52.160;-0.428;2023-10-13T04:39:55;11.80;;;8.20;;
20743;SDS011;56303;52.160;-0.428;2023-10-13T04:42:26;11.13;;;7.63;;
20743;SDS011;56303;52.160;-0.428;2023-10-13T04:45:13;15.03;;;8.27;;
20743;SDS011;56303;52.160;-0.428;2023-10-13T04:48:03;12.73;;;8.20;;
20743;SDS011;56303;52.160;-0.428;2023-10-13T04:50:44;12.87;;;7.57;;
20743;SDS011;56303;52.160;-0.428;2023-10-13T04:53:16;14.53;;;8.83;;
20743;SDS011;56303;52.160;-0.428;2023-10-13T04:55:57;14.30;;;8.27;;
20743;SDS011;56303;52.160;-0.428;2023-10-13T04:58:30;12.97;;;9.27;;
20743;SDS011;56303;52.160;-0.428;2023-10-13T05:01:04;16.50;;;9.40;;
20743;SDS011;56303;52.160;-0.428;2023-10-13T05:03:50;16.97;;;9.17;;
20743;SDS011;56303;52.160;-0.428;2023-10-13T05:06:48;17.73;;;8.90;;
20743;SDS011;56303;52.160;-0.428;2023-10-13T05:09:38;20.03;;;9.87;;
20743;SDS011;56303;52.160;-0.428;2023-10-13T05:12:24;17.20;;;9.47;;
20743;SDS011;56303;52.160;-0.428;2023-10-13T05:15:09;13.30;;;8.73;;
20743;SDS011;56303;52.160;-0.428;2023-10-13T05:17:54;15.10;;;8.80;;
20743;SDS011;56303;52.160;-0.428;2023-10-13T05:20:40;14.40;;;8.23;;
20743;SDS011;56303;52.160;-0.428;2023-10-13T05:23:25;17.10;;;9.37;;
20743;SDS011;56303;52.160;-0.428;2023-10-13T05:26:11;20.50;;;8.20;;
20743;SDS011;56303;52.160;-0.428;2023-10-13T05:28:56;12.67;;;8.20;;
20743;SDS011;56303;52.160;-0.428;2023-10-13T05:31:54;16.03;;;8.37;;
20743;SDS011;56303;52.160;-0.428;2023-10-13T05:34:39;13.73;;;8.17;;
20743;SDS011;56303;52.160;-0.428;2023-10-13T05:37:25;19.13;;;10.20;;
20743;SDS011;56303;52.160;-0.428;2023-10-13T05:40:11;18.77;;;8.67;;
20743;SDS011;56303;52.160;-0.428;2023-10-13T05:42:56;18.20;;;8.43;;
20743;SDS011;56303;52.160;-0.428;2023-10-13T05:45:41;18.43;;;8.67;;
20743;SDS011;56303;52.160;-0.428;2023-10-13T05:48:31;19.87;;;9.00;;
20743;SDS011;56303;52.160;-0.428;2023-10-13T05:51:18;16.10;;;9.13;;
20743;SDS011;56303;52.160;-0.428;2023-10-13T05:54:04;15.77;;;8.37;;
20743;SDS011;56303;52.160;-0.428;2023-10-13T05:56:43;14.07;;;8.43;;
20743;SDS011;56303;52.160;-0.428;2023-10-13T05:59:33;20.37;;;8.53;;
20743;SDS011;56303;52.160;-0.428;2023-10-13T06:02:19;17.30;;;8.57;;
20743;SDS011;56303;52.160;-0.428;2023-10-13T06:05:07;14.77;;;8.50;;
20743;SDS011;56303;52.160;-0.428;2023-10-13T06:07:54;16.97;;;7.87;;
20743;SDS011;56303;52.160;-0.428;2023-10-13T06:10:40;15.10;;;7.67;;
20743;SDS011;56303;52.160;-0.428;2023-10-13T06:13:26;15.57;;;7.17;;
20743;SDS011;56303;52.160;-0.428;2023-10-13T06:16:13;17.37;;;7.70;;
20743;SDS011;56303;52.160;-0.428;2023-10-13T06:19:00;17.07;;;8.33;;
20743;SDS011;56303;52.160;-0.428;2023-10-13T06:21:46;15.43;;;6.97;;
20743;SDS011;56303;52.160;-0.428;2023-10-13T06:24:32;17.63;;;7.93;;
20743;SDS011;56303;52.160;-0.428;2023-10-13T06:27:17;15.93;;;7.97;;
20743;SDS011;56303;52.160;-0.428;2023-10-13T06:30:03;15.83;;;7.80;;
20743;SDS011;56303;52.160;-0.428;2023-10-13T06:32:31;15.33;;;7.57;;
20743;SDS011;56303;52.160;-0.428;2023-10-13T06:34:59;18.53;;;7.40;;
20743;SDS011;56303;52.160;-0.428;2023-10-13T06:37:45;16.80;;;7.80;;
20743;SDS011;56303;52.160;-0.428;2023-10-13T06:40:13;19.50;;;8.00;;
20743;SDS011;56303;52.160;-0.428;2023-10-13T06:42:52;21.63;;;7.83;;
20743;SDS011;56303;52.160;-0.428;2023-10-13T06:45:21;17.20;;;7.10;;
20743;SDS011;56303;52.160;-0.428;2023-10-13T06:47:48;16.33;;;7.47;;
20743;SDS011;56303;52.160;-0.428;2023-10-13T06:50:19;16.43;;;7.07;;
20743;SDS011;56303;52.160;-0.428;2023-10-13T06:52:50;16.97;;;6.67;;
20743;SDS011;56303;52.160;-0.428;2023-10-13T06:55:21;17.53;;;8.50;;
20743;SDS011;56303;52.160;-0.428;2023-10-13T06:58:02;17.57;;;7.60;;
20743;SDS011;56303;52.160;-0.428;2023-10-13T07:00:30;16.03;;;7.50;;
20743;SDS011;56303;52.160;-0.428;2023-10-13T07:03:01;21.57;;;8.90;;
20743;SDS011;56303;52.160;-0.428;2023-10-13T07:05:45;23.80;;;8.27;;
20743;SDS011;56303;52.160;-0.428;2023-10-13T07:08:15;19.37;;;9.03;;
20743;SDS011;56303;52.160;-0.428;2023-10-13T07:10:49;20.60;;;7.60;;
20743;SDS011;56303;52.160;-0.428;2023-10-13T07:13:24;22.80;;;8.13;;
20743;SDS011;56303;52.160;-0.428;2023-10-13T07:15:54;16.50;;;7.33;;
20743;SDS011;56303;52.160;-0.428;2023-10-13T07:18:39;20.60;;;8.33;;
20743;SDS011;56303;52.160;-0.428;2023-10-13T07:21:16;19.37;;;7.87;;
20743;SDS011;56303;52.160;-0.428;2023-10-13T07:23:43;23.17;;;9.07;;
20743;SDS011;56303;52.160;-0.428;2023-10-13T07:26:27;20.57;;;8.27;;
20743;SDS011;56303;52.160;-0.428;2023-10-13T07:28:55;18.90;;;7.90;;
20743;SDS011;56303;52.160;-0.428;2023-10-13T07:31:21;21.60;;;7.70;;
20743;SDS011;56303;52.160;-0.428;2023-10-13T07:33:53;20.53;;;8.53;;
20743;SDS011;56303;52.160;-0.428;2023-10-13T07:36:30;19.37;;;7.90;;
20743;SDS011;56303;52.160;-0.428;2023-10-13T07:39:05;17.50;;;7.13;;
20743;SDS011;56303;52.160;-0.428;2023-10-13T07:41:49;16.47;;;8.20;;
20743;SDS011;56303;52.160;-0.428;2023-10-13T07:44:34;23.00;;;7.77;;
20743;SDS011;56303;52.160;-0.428;2023-10-13T07:47:12;24.40;;;8.13;;
20743;SDS011;56303;52.160;-0.428;2023-10-13T07:49:40;20.60;;;7.87;;
20743;SDS011;56303;52.160;-0.428;2023-10-13T07:52:08;18.67;;;7.03;;
20743;SDS011;56303;52.160;-0.428;2023-10-13T07:55:00;19.27;;;7.33;;
20743;SDS011;56303;52.160;-0.428;2023-10-13T07:57:40;18.45;;;7.93;;
20743;SDS011;56303;52.160;-0.428;2023-10-13T08:00:20;17.43;;;6.77;;
20743;SDS011;56303;52.160;-0.428;2023-10-13T08:03:06;15.77;;;7.13;;
20743;SDS011;56303;52.160;-0.428;2023-10-13T08:05:36;19.43;;;6.73;;
20743;SDS011;56303;52.160;-0.428;2023-10-13T08:08:22;20.03;;;6.77;;
20743;SDS011;56303;52.160;-0.428;2023-10-13T08:10:52;14.50;;;5.87;;
20743;SDS011;56303;52.160;-0.428;2023-10-13T08:13:27;16.90;;;6.70;;
20743;SDS011;56303;52.160;-0.428;2023-10-13T08:15:53;18.57;;;6.97;;
20743;SDS011;56303;52.160;-0.428;2023-10-13T08:18:20;16.73;;;6.13;;
20743;SDS011;56303;52.160;-0.428;2023-10-13T08:20:57;13.07;;;6.60;;
20743;SDS011;56303;52.160;-0.428;2023-10-13T08:23:29;13.93;;;6.17;;
20743;SDS011;56303;52.160;-0.428;2023-10-13T08:26:15;20.07;;;7.03;;
20743;SDS011;56303;52.160;-0.428;2023-10-13T08:29:01;15.70;;;6.47;;
20743;SDS011;56303;52.160;-0.428;2023-10-13T08:31:48;18.63;;;6.80;;
20743;SDS011;56303;52.160;-0.428;2023-10-13T08:34:31;13.43;;;5.67;;
20743;SDS011;56303;52.160;-0.428;2023-10-13T08:37:10;16.07;;;6.03;;
20743;SDS011;56303;52.160;-0.428;2023-10-13T08:39:50;15.57;;;6.50;;
20743;SDS011;56303;52.160;-0.428;2023-10-13T08:42:32;15.03;;;5.90;;
20743;SDS011;56303;52.160;-0.428;2023-10-13T08:45:07;19.80;;;6.83;;
20743;SDS011;56303;52.160;-0.428;2023-10-13T08:47:56;16.40;;;6.73;;
20743;SDS011;56303;52.160;-0.428;2023-10-13T08:50:49;16.40;;;6.30;;
20743;SDS011;56303;52.160;-0.428;2023-10-13T08:53:18;14.73;;;5.70;;
20743;SDS011;56303;52.160;-0.428;2023-10-13T08:56:01;14.60;;;6.80;;
20743;SDS011;56303;52.160;-0.428;2023-10-13T08:58:42;16.97;;;6.03;;
20743;SDS011;56303;52.160;-0.428;2023-10-13T09:04:15;11.70;;;4.97;;
20743;SDS011;56303;52.160;-0.428;2023-10-13T09:07:04;13.30;;;5.33;;
20743;SDS011;56303;52.160;-0.428;2023-10-13T09:09:49;16.23;;;6.43;;
20743;SDS011;56303;52.160;-0.428;2023-10-13T09:12:29;13.10;;;6.20;;
20743;SDS011;56303;52.160;-0.428;2023-10-13T09:14:59;15.07;;;5.63;;
20743;SDS011;56303;52.160;-0.428;2023-10-13T09:17:40;13.67;;;5.77;;
20743;SDS011;56303;52.160;-0.428;2023-10-13T09:20:09;10.87;;;5.30;;
20743;SDS011;56303;52.160;-0.428;2023-10-13T09:22:52;12.27;;;5.07;;
20743;SDS011;56303;52.160;-0.428;2023-10-13T09:28:14;13.50;;;5.47;;
20743;SDS011;56303;52.160;-0.428;2023-10-13T09:30:44;12.30;;;5.63;;
20743;SDS011;56303;52.160;-0.428;2023-10-13T09:33:12;8.77;;;4.50;;
20743;SDS011;56303;52.160;-0.428;2023-10-13T09:35:46;10.97;;;4.40;;
20743;SDS011;56303;52.160;-0.428;2023-10-13T09:38:16;9.70;;;4.60;;
20743;SDS011;56303;52.160;-0.428;2023-10-13T09:40:44;11.10;;;4.03;;
20743;SDS011;56303;52.160;-0.428;2023-10-13T09:43:17;10.93;;;4.53;;
20743;SDS011;56303;52.160;-0.428;2023-10-13T09:45:46;11.70;;;4.57;;
20743;SDS011;56303;52.160;-0.428;2023-10-13T09:48:33;8.07;;;3.87;;
20743;SDS011;56303;52.160;-0.428;2023-10-13T09:51:02;11.57;;;5.20;;
20743;SDS011;56303;52.160;-0.428;2023-10-13T09:53:37;12.97;;;4.07;;
20743;SDS011;56303;52.160;-0.428;2023-10-13T09:56:47;12.93;;;4.93;;
20743;SDS011;56303;52.160;-0.428;2023-10-13T09:59:22;11.67;;;3.80;;
20743;SDS011;56303;52.160;-0.428;2023-10-13T10:02:01;9.40;;;4.17;;
20743;SDS011;56303;52.160;-0.428;2023-10-13T10:04:51;9.53;;;4.50;;
20743;SDS011;56303;52.160;-0.428;2023-10-13T10:07:26;10.17;;;4.57;;
20743;SDS011;56303;52.160;-0.428;2023-10-13T10:09:57;9.77;;;3.87;;
20743;SDS011;56303;52.160;-0.428;2023-10-13T10:17:57;9.57;;;4.63;;
20743;SDS011;56303;52.160;-0.428;2023-10-13T10:20:30;9.97;;;4.13;;
20743;SDS011;56303;52.160;-0.428;2023-10-13T10:23:23;6.57;;;3.57;;
20743;SDS011;56303;52.160;-0.428;2023-10-13T10:26:11;8.77;;;3.33;;
20743;SDS011;56303;52.160;-0.428;2023-10-13T10:28:46;8.53;;;3.23;;
20743;SDS011;56303;52.160;-0.428;2023-10-13T10:31:13;7.30;;;3.30;;
20743;SDS011;56303;52.160;-0.428;2023-10-13T10:33:46;8.90;;;3.80;;
20743;SDS011;56303;52.160;-0.428;2023-10-13T10:36:17;11.53;;;3.20;;
20743;SDS011;56303;52.160;-0.428;2023-10-13T10:38:56;7.20;;;3.10;;
20743;SDS011;56303;52.160;-0.428;2023-10-13T10:41:27;9.77;;;3.23;;
20743;SDS011;56303;52.160;-0.428;2023-10-13T10:44:15;7.67;;;3.50;;
20743;SDS011;56303;52.160;-0.428;2023-10-13T10:46:42;9.23;;;3.40;;
20743;SDS011;56303;52.160;-0.428;2023-10-13T10:49:27;6.67;;;3.20;;
20743;SDS011;56303;52.160;-0.428;2023-10-13T10:51:57;9.03;;;3.33;;
20743;SDS011;56303;52.160;-0.428;2023-10-13T10:54:30;11.63;;;3.67;;
20743;SDS011;56303;52.160;-0.428;2023-10-13T10:57:00;9.37;;;3.40;;
20743;SDS011;56303;52.160;-0.428;2023-10-13T10:59:44;5.17;;;2.83;;
20743;SDS011;56303;52.160;-0.428;2023-10-13T11:02:12;9.03;;;3.57;;
20743;SDS011;56303;52.160;-0.428;2023-10-13T11:04:50;8.03;;;4.33;;
20743;SDS011;56303;52.160;-0.428;2023-10-13T11:07:24;9.90;;;3.33;;
20743;SDS011;56303;52.160;-0.428;2023-10-13T11:09:52;7.90;;;3.80;;
20743;SDS011;56303;52.160;-0.428;2023-10-13T11:12:41;8.50;;;3.87;;
20743;SDS011;56303;52.160;-0.428;2023-10-13T11:15:09;11.03;;;4.00;;
20743;SDS011;56303;52.160;-0.428;2023-10-13T11:18:02;11.50;;;4.70;;
20743;SDS011;56303;52.160;-0.428;2023-10-13T11:20:32;9.00;;;3.83;;
20743;SDS011;56303;52.160;-0.428;2023-10-13T11:23:00;7.97;;;4.10;;
20743;SDS011;56303;52.160;-0.428;2023-10-13T11:25:31;9.53;;;3.87;;
20743;SDS011;56303;52.160;-0.428;2023-10-13T11:28:11;14.50;;;4.47;;
20743;SDS011;56303;52.160;-0.428;2023-10-13T11:30:57;10.67;;;3.80;;
20743;SDS011;56303;52.160;-0.428;2023-10-13T11:33:26;10.37;;;4.47;;
20743;SDS011;56303;52.160;-0.428;2023-10-13T11:35:57;9.73;;;4.30;;
20743;SDS011;56303;52.160;-0.428;2023-10-13T11:38:30;8.63;;;4.17;;
20743;SDS011;56303;52.160;-0.428;2023-10-13T11:41:11;11.70;;;3.90;;
20743;SDS011;56303;52.160;-0.428;2023-10-13T11:43:39;8.40;;;3.90;;
20743;SDS011;56303;52.160;-0.428;2023-10-13T11:46:11;8.90;;;3.80;;
20743;SDS011;56303;52.160;-0.428;2023-10-13T11:48:44;9.80;;;3.67;;
20743;SDS011;56303;52.160;-0.428;2023-10-13T11:51:14;9.87;;;3.93;;
20743;SDS011;56303;52.160;-0.428;2023-10-13T11:53:50;7.80;;;3.47;;
20743;SDS011;56303;52.160;-0.428;2023-10-13T11:56:20;9.23;;;3.53;;
20743;SDS011;56303;52.160;-0.428;2023-10-13T11:58:47;7.40;;;3.17;;
20743;SDS011;56303;52.160;-0.428;2023-10-13T12:01:15;10.17;;;3.83;;
20743;SDS011;56303;52.160;-0.428;2023-10-13T12:04:08;7.30;;;3.67;;
20743;SDS011;56303;52.160;-0.428;2023-10-13T12:06:54;7.90;;;3.03;;
20743;SDS011;56303;52.160;-0.428;2023-10-13T12:09:40;6.80;;;3.27;;
20743;SDS011;56303;52.160;-0.428;2023-10-13T12:12:18;9.00;;;3.20;;
20743;SDS011;56303;52.160;-0.428;2023-10-13T12:14:45;10.00;;;3.37;;
20743;SDS011;56303;52.160;-0.428;2023-10-13T12:17:25;8.40;;;3.20;;
20743;SDS011;56303;52.160;-0.428;2023-10-13T12:19:58;7.80;;;2.73;;
20743;SDS011;56303;52.160;-0.428;2023-10-13T12:22:34;8.07;;;2.40;;
20743;SDS011;56303;52.160;-0.428;2023-10-13T12:25:17;9.57;;;3.07;;
20743;SDS011;56303;52.160;-0.428;2023-10-13T12:28:00;8.10;;;3.63;;
20743;SDS011;56303;52.160;-0.428;2023-10-13T12:30:54;10.10;;;3.10;;
20743;SDS011;56303;52.160;-0.428;2023-10-13T12:33:26;8.07;;;3.50;;
20743;SDS011;56303;52.160;-0.428;2023-10-13T12:36:03;8.60;;;2.97;;
20743;SDS011;56303;52.160;-0.428;2023-10-13T12:38:33;7.27;;;3.03;;
20743;SDS011;56303;52.160;-0.428;2023-10-13T12:41:18;8.17;;;3.37;;
20743;SDS011;56303;52.160;-0.428;2023-10-13T12:44:05;8.82;;;2.90;;
20743;SDS011;56303;52.160;-0.428;2023-10-13T12:46:51;8.50;;;2.95;;
20743;SDS011;56303;52.160;-0.428;2023-10-13T12:49:42;6.17;;;3.27;;
20743;SDS011;56303;52.160;-0.428;2023-10-13T12:52:10;9.73;;;3.13;;
20743;SDS011;56303;52.160;-0.428;2023-10-13T12:54:51;8.13;;;3.40;;
20743;SDS011;56303;52.160;-0.428;2023-10-13T12:57:39;7.82;;;3.25;;
20743;SDS011;56303;52.160;-0.428;2023-10-13T13:00:12;6.03;;;2.47;;
20743;SDS011;56303;52.160;-0.428;2023-10-13T13:02:51;5.53;;;2.73;;
20743;SDS011;56303;52.160;-0.428;2023-10-13T13:05:22;6.77;;;2.27;;
20743;SDS011;56303;52.160;-0.428;2023-10-13T13:07:55;4.80;;;2.07;;
20743;SDS011;56303;52.160;-0.428;2023-10-13T13:10:22;5.57;;;2.10;;
20743;SDS011;56303;52.160;-0.428;2023-10-13T13:13:02;6.73;;;2.47;;
20743;SDS011;56303;52.160;-0.428;2023-10-13T13:15:29;8.27;;;2.63;;
20743;SDS011;56303;52.160;-0.428;2023-10-13T13:17:56;7.60;;;2.07;;
20743;SDS011;56303;52.160;-0.428;2023-10-13T13:20:24;5.80;;;2.20;;
20743;SDS011;56303;52.160;-0.428;2023-10-13T13:22:55;6.00;;;1.83;;
20743;SDS011;56303;52.160;-0.428;2023-10-13T13:25:28;6.97;;;2.30;;
20743;SDS011;56303;52.160;-0.428;2023-10-13T13:27:57;6.53;;;1.97;;
20743;SDS011;56303;52.160;-0.428;2023-10-13T13:30:24;6.40;;;2.07;;
20743;SDS011;56303;52.160;-0.428;2023-10-13T13:32:59;5.23;;;2.00;;
20743;SDS011;56303;52.160;-0.428;2023-10-13T13:35:30;6.93;;;2.30;;
20743;SDS011;56303;52.160;-0.428;2023-10-13T13:38:01;6.87;;;2.37;;
20743;SDS011;56303;52.160;-0.428;2023-10-13T13:40:51;6.83;;;2.47;;
20743;SDS011;56303;52.160;-0.428;2023-10-13T13:43:24;4.67;;;2.00;;
20743;SDS011;56303;52.160;-0.428;2023-10-13T13:46:10;5.90;;;1.80;;
20743;SDS011;56303;52.160;-0.428;2023-10-13T13:48:37;5.90;;;1.97;;
20743;SDS011;56303;52.160;-0.428;2023-10-13T13:51:05;5.80;;;2.07;;
20743;SDS011;56303;52.160;-0.428;2023-10-13T13:53:41;8.17;;;2.70;;
20743;SDS011;56303;52.160;-0.428;2023-10-13T13:56:12;5.37;;;2.83;;
20743;SDS011;56303;52.160;-0.428;2023-10-13T13:58:44;6.13;;;2.57;;
20743;SDS011;56303;52.160;-0.428;2023-10-13T14:01:11;8.67;;;3.40;;
20743;SDS011;56303;52.160;-0.428;2023-10-13T14:03:42;13.17;;;3.73;;
20743;SDS011;56303;52.160;-0.428;2023-10-13T14:06:17;12.83;;;4.00;;
20743;SDS011;56303;52.160;-0.428;2023-10-13T14:08:52;9.13;;;4.33;;
20743;SDS011;56303;52.160;-0.428;2023-10-13T14:11:27;12.47;;;4.10;;
20743;SDS011;56303;52.160;-0.428;2023-10-13T14:14:12;8.43;;;3.93;;
20743;SDS011;56303;52.160;-0.428;2023-10-13T14:17:06;7.53;;;3.47;;
20743;SDS011;56303;52.160;-0.428;2023-10-13T14:19:34;11.30;;;3.70;;
20743;SDS011;56303;52.160;-0.428;2023-10-13T14:22:07;8.43;;;3.57;;
20743;SDS011;56303;52.160;-0.428;2023-10-13T14:24:34;7.80;;;3.37;;
20743;SDS011;56303;52.160;-0.428;2023-10-13T14:27:02;10.37;;;3.90;;
20743;SDS011;56303;52.160;-0.428;2023-10-13T14:29:38;6.67;;;2.87;;
20743;SDS011;56303;52.160;-0.428;2023-10-13T14:32:14;10.03;;;2.90;;
20743;SDS011;56303;52.160;-0.428;2023-10-13T14:34:42;10.00;;;3.37;;
20743;SDS011;56303;52.160;-0.428;2023-10-13T14:37:10;11.57;;;4.43;;
20743;SDS011;56303;52.160;-0.428;2023-10-13T14:39:40;8.17;;;3.80;;
20743;SDS011;56303;52.160;-0.428;2023-10-13T14:42:07;10.17;;;3.33;;
20743;SDS011;56303;52.160;-0.428;2023-10-13T14:44:34;9.07;;;3.60;;
20743;SDS011;56303;52.160;-0.428;2023-10-13T14:47:03;12.70;;;4.70;;
20743;SDS011;56303;52.160;-0.428;2023-10-13T14:49:35;9.13;;;3.40;;
20743;SDS011;56303;52.160;-0.428;2023-10-13T14:52:02;8.33;;;3.50;;
20743;SDS011;56303;52.160;-0.428;2023-10-13T14:54:29;8.70;;;3.23;;
20743;SDS011;56303;52.160;-0.428;2023-10-13T14:57:02;9.00;;;3.50;;
20743;SDS011;56303;52.160;-0.428;2023-10-13T14:59:29;8.37;;;3.70;;
20743;SDS011;56303;52.160;-0.428;2023-10-13T15:02:00;10.27;;;3.80;;
20743;SDS011;56303;52.160;-0.428;2023-10-13T15:04:29;7.93;;;3.23;;
20743;SDS011;56303;52.160;-0.428;2023-10-13T15:07:00;9.93;;;4.13;;
20743;SDS011;56303;52.160;-0.428;2023-10-13T15:09:28;7.40;;;3.20;;
20743;SDS011;56303;52.160;-0.428;2023-10-13T15:11:56;9.53;;;3.70;;
20743;SDS011;56303;52.160;-0.428;2023-10-13T15:14:22;8.43;;;2.90;;
20743;SDS011;56303;52.160;-0.428;2023-10-13T15:16:50;9.00;;;3.20;;
20743;SDS011;56303;52.160;-0.428;2023-10-13T15:19:18;4.23;;;2.00;;
20743;SDS011;56303;52.160;-0.428;2023-10-13T15:21:45;7.17;;;2.40;;
20743;SDS011;56303;52.160;-0.428;2023-10-13T15:24:19;5.97;;;2.40;;
20743;SDS011;56303;52.160;-0.428;2023-10-13T15:26:53;5.77;;;2.37;;
20743;SDS011;56303;52.160;-0.428;2023-10-13T15:29:28;6.20;;;2.20;;
20743;SDS011;56303;52.160;-0.428;2023-10-13T15:32:03;4.03;;;2.00;;